createdAt,value
2017-01-21T00:00:04.105Z,-6.79
2017-01-21T00:01:03.277Z,-6.78
2017-01-21T00:02:04.089Z,-6.79
2017-01-21T00:03:03.673Z,-6.88
2017-01-21T00:04:03.674Z,-6.78
2017-01-21T00:05:03.665Z,-6.84
2017-01-21T00:06:03.249Z,-6.82
2017-01-21T00:07:04.073Z,-6.84
2017-01-21T00:08:03.649Z,-6.86
2017-01-21T00:09:04.065Z,-6.84
2017-01-21T00:10:03.638Z,-6.81
2017-01-21T00:11:04.053Z,-6.84
2017-01-21T00:12:03.633Z,-6.82
2017-01-21T00:13:04.043Z,-6.84
2017-01-21T00:14:04.033Z,-6.76
2017-01-21T00:15:03.622Z,-6.76
2017-01-21T00:16:03.646Z,-6.81
2017-01-21T00:17:04.026Z,-6.81
2017-01-21T00:18:03.198Z,-6.82
2017-01-21T00:19:04.014Z,-6.82
2017-01-21T00:20:04.002Z,-6.82
2017-01-21T00:21:04.005Z,-6.82
2017-01-21T00:22:03.994Z,-6.81
2017-01-21T00:23:03.586Z,-6.82
2017-01-21T00:24:03.586Z,-6.81
2017-01-21T00:25:03.982Z,-6.79
2017-01-21T00:26:03.566Z,-6.76
2017-01-21T00:27:03.978Z,-6.79
2017-01-21T00:28:03.566Z,-6.82
2017-01-21T00:29:03.559Z,-6.82
2017-01-21T00:30:03.554Z,-6.82
2017-01-21T00:31:03.538Z,-6.82
2017-01-21T00:32:03.946Z,-6.73
2017-01-21T00:33:03.950Z,-6.75
2017-01-21T00:34:03.534Z,-6.76
2017-01-21T00:35:03.522Z,-6.73
2017-01-21T00:36:03.522Z,-6.73
2017-01-21T00:37:03.523Z,-6.76
2017-01-21T00:38:03.536Z,-6.76
2017-01-21T00:39:03.102Z,-6.73
2017-01-21T00:40:03.914Z,-6.71
2017-01-21T00:41:03.914Z,-6.76
2017-01-21T00:42:03.905Z,-6.73
2017-01-21T00:43:03.905Z,-6.71
2017-01-21T00:44:03.485Z,-6.71
2017-01-21T00:45:03.893Z,-6.67
2017-01-21T00:46:03.893Z,-6.67
2017-01-21T00:47:03.465Z,-6.71
2017-01-21T00:48:03.470Z,-6.78
2017-01-21T00:49:03.882Z,-6.79
2017-01-21T00:50:03.872Z,-6.76
2017-01-21T00:51:03.860Z,-6.71
2017-01-21T00:52:03.856Z,-6.67
2017-01-21T00:53:03.444Z,-6.71
2017-01-21T00:54:03.439Z,-6.71
2017-01-21T00:55:03.436Z,-6.75
2017-01-21T00:56:03.427Z,-6.6
2017-01-21T00:57:03.419Z,-6.64
2017-01-21T00:58:03.419Z,-6.61
2017-01-21T00:59:03.420Z,-6.64
2017-01-21T01:00:02.993Z,-6.58
2017-01-21T01:01:03.815Z,-6.44
2017-01-21T01:02:03.811Z,-6.52
2017-01-21T01:03:03.807Z,-6.58
2017-01-21T01:04:03.383Z,-6.44
2017-01-21T01:05:03.383Z,-6.52
2017-01-21T01:06:03.795Z,-6.46
2017-01-21T01:07:03.383Z,-6.46
2017-01-21T01:08:03.787Z,-6.46
2017-01-21T01:09:03.771Z,-6.45
2017-01-21T01:10:03.356Z,-6.42
2017-01-21T01:11:03.763Z,-6.44
2017-01-21T01:12:03.756Z,-6.44
2017-01-21T01:13:03.343Z,-6.45
2017-01-21T01:14:03.347Z,-6.39
2017-01-21T01:15:03.751Z,-6.38
2017-01-21T01:16:03.747Z,-6.39
2017-01-21T01:17:02.919Z,-6.44
2017-01-21T01:18:03.727Z,-6.46
2017-01-21T01:19:03.315Z,-6.48
2017-01-21T01:20:03.323Z,-6.48
2017-01-21T01:21:03.711Z,-6.46
2017-01-21T01:22:03.303Z,-6.38
2017-01-21T01:23:03.711Z,-6.42
2017-01-21T01:24:03.287Z,-6.46
2017-01-21T01:25:03.707Z,-6.48
2017-01-21T01:26:03.691Z,-6.46
2017-01-21T01:27:03.687Z,-6.44
2017-01-21T01:28:03.691Z,-6.49
2017-01-21T01:29:03.675Z,-6.44
2017-01-21T01:30:03.675Z,-6.45
2017-01-21T01:31:03.259Z,-6.42
2017-01-21T01:32:03.259Z,-6.42
2017-01-21T01:33:03.655Z,-6.38
2017-01-21T01:34:03.655Z,-6.36
2017-01-21T01:35:03.235Z,-6.36
2017-01-21T01:36:03.648Z,-6.38
2017-01-21T01:37:02.823Z,-6.44
2017-01-21T01:38:03.632Z,-6.34
2017-01-21T01:39:03.216Z,-6.45
2017-01-21T01:40:03.659Z,-6.45
2017-01-21T01:41:03.627Z,-6.46
2017-01-21T01:42:03.220Z,-6.46
2017-01-21T01:43:02.792Z,-6.54
2017-01-21T01:44:03.603Z,-6.49
2017-01-21T01:45:03.192Z,-6.6
2017-01-21T01:46:03.196Z,-6.51
2017-01-21T01:47:03.605Z,-6.58
2017-01-21T01:48:03.187Z,-6.52
2017-01-21T01:49:03.592Z,-6.51
2017-01-21T01:50:03.580Z,-6.48
2017-01-21T01:51:03.168Z,-6.58
2017-01-21T01:52:02.748Z,-6.58
2017-01-21T01:53:03.576Z,-6.48
2017-01-21T01:54:02.744Z,-6.52
2017-01-21T01:55:03.155Z,-6.6
2017-01-21T01:56:03.140Z,-6.58
2017-01-21T01:57:03.552Z,-6.64
2017-01-21T01:58:03.544Z,-6.61
2017-01-21T01:59:03.132Z,-6.64
2017-01-21T02:00:03.532Z,-6.64
2017-01-21T02:01:03.112Z,-6.66
2017-01-21T02:02:03.533Z,-6.64
2017-01-21T02:03:03.112Z,-6.68
2017-01-21T02:04:03.525Z,-6.73
2017-01-21T02:05:02.701Z,-6.73
2017-01-21T02:06:03.098Z,-6.75
2017-01-21T02:07:03.509Z,-6.64
2017-01-21T02:08:03.501Z,-6.75
2017-01-21T02:09:03.519Z,-6.79
2017-01-21T02:10:02.661Z,-6.7
2017-01-21T02:11:03.489Z,-6.75
2017-01-21T02:12:03.073Z,-6.7
2017-01-21T02:13:03.069Z,-6.68
2017-01-21T02:14:03.065Z,-6.7
2017-01-21T02:15:03.057Z,-6.75
2017-01-21T02:16:03.041Z,-6.66
2017-01-21T02:17:03.046Z,-6.58
2017-01-21T02:18:03.482Z,-6.64
2017-01-21T02:19:03.446Z,-6.6
2017-01-21T02:20:03.034Z,-6.51
2017-01-21T02:21:03.442Z,-6.64
2017-01-21T02:22:03.018Z,-6.56
2017-01-21T02:23:03.423Z,-6.67
2017-01-21T02:24:03.430Z,-6.51
2017-01-21T02:25:03.422Z,-6.6
2017-01-21T02:26:03.414Z,-6.48
2017-01-21T02:27:03.411Z,-6.51
2017-01-21T02:28:03.407Z,-6.46
2017-01-21T02:29:03.399Z,-6.46
2017-01-21T02:30:02.988Z,-6.51
2017-01-21T02:31:03.395Z,-6.46
2017-01-21T02:32:02.971Z,-6.48
2017-01-21T02:33:03.379Z,-6.56
2017-01-21T02:34:02.971Z,-6.52
2017-01-21T02:35:03.377Z,-6.52
2017-01-21T02:36:03.371Z,-6.49
2017-01-21T02:37:02.952Z,-6.56
2017-01-21T02:38:02.948Z,-6.52
2017-01-21T02:39:02.939Z,-6.56
2017-01-21T02:40:03.355Z,-6.52
2017-01-21T02:41:02.943Z,-6.52
2017-01-21T02:42:02.932Z,-6.52
2017-01-21T02:43:02.924Z,-6.52
2017-01-21T02:44:03.328Z,-6.58
2017-01-21T02:45:02.916Z,-6.51
2017-01-21T02:46:03.316Z,-6.51
2017-01-21T02:47:02.908Z,-6.54
2017-01-21T02:48:02.902Z,-6.51
2017-01-21T02:49:02.900Z,-6.58
2017-01-21T02:50:02.900Z,-6.56
2017-01-21T02:51:03.293Z,-6.61
2017-01-21T02:52:02.881Z,-6.61
2017-01-21T02:53:02.885Z,-6.64
2017-01-21T02:54:02.869Z,-6.6
2017-01-21T02:55:02.865Z,-6.61
2017-01-21T02:56:02.457Z,-6.6
2017-01-21T02:57:02.857Z,-6.58
2017-01-21T02:58:02.854Z,-6.54
2017-01-21T02:59:02.857Z,-6.58
2017-01-21T03:00:02.845Z,-6.51
2017-01-21T03:01:03.246Z,-6.48
2017-01-21T03:02:02.454Z,-6.48
2017-01-21T03:03:03.246Z,-6.44
2017-01-21T03:04:02.826Z,-6.45
2017-01-21T03:05:03.230Z,-6.42
2017-01-21T03:06:02.822Z,-6.38
2017-01-21T03:07:03.230Z,-6.36
2017-01-21T03:08:02.814Z,-6.36
2017-01-21T03:09:02.806Z,-6.39
2017-01-21T03:10:02.378Z,-6.44
2017-01-21T03:11:03.198Z,-6.38
2017-01-21T03:12:03.202Z,-6.45
2017-01-21T03:13:02.782Z,-6.33
2017-01-21T03:14:02.778Z,-6.34
2017-01-21T03:15:02.771Z,-6.44
2017-01-21T03:16:02.767Z,-6.36
2017-01-21T03:17:02.767Z,-6.39
2017-01-21T03:18:02.771Z,-6.36
2017-01-21T03:19:02.759Z,-6.34
2017-01-21T03:20:02.755Z,-6.38
2017-01-21T03:21:02.751Z,-6.41
2017-01-21T03:22:03.155Z,-6.38
2017-01-21T03:23:03.147Z,-6.38
2017-01-21T03:24:03.139Z,-6.39
2017-01-21T03:25:02.723Z,-6.51
2017-01-21T03:26:02.727Z,-6.45
2017-01-21T03:27:03.119Z,-6.54
2017-01-21T03:28:03.127Z,-6.54
2017-01-21T03:29:02.708Z,-6.45
2017-01-21T03:30:03.120Z,-6.42
2017-01-21T03:31:03.108Z,-6.38
2017-01-21T03:32:02.700Z,-6.36
2017-01-21T03:33:02.289Z,-6.42
2017-01-21T03:34:03.096Z,-6.41
2017-01-21T03:35:02.680Z,-6.33
2017-01-21T03:36:02.683Z,-6.3
2017-01-21T03:37:02.264Z,-6.36
2017-01-21T03:38:03.072Z,-6.39
2017-01-21T03:39:02.656Z,-6.33
2017-01-21T03:40:03.073Z,-6.38
2017-01-21T03:41:02.656Z,-6.38
2017-01-21T03:42:03.052Z,-6.42
2017-01-21T03:43:03.055Z,-6.46
2017-01-21T03:44:03.049Z,-6.45
2017-01-21T03:45:02.637Z,-6.48
2017-01-21T03:46:03.040Z,-6.48
2017-01-21T03:47:03.037Z,-6.44
2017-01-21T03:48:03.025Z,-6.45
2017-01-21T03:49:03.029Z,-6.42
2017-01-21T03:50:02.202Z,-6.45
2017-01-21T03:51:03.021Z,-6.46
2017-01-21T03:52:02.609Z,-6.45
2017-01-21T03:53:02.997Z,-6.54
2017-01-21T03:54:02.593Z,-6.48
2017-01-21T03:55:02.589Z,-6.49
2017-01-21T03:56:02.165Z,-6.54
2017-01-21T03:57:02.993Z,-6.54
2017-01-21T03:58:02.165Z,-6.56
2017-01-21T03:59:02.566Z,-6.52
2017-01-21T04:00:02.562Z,-6.46
2017-01-21T04:01:02.558Z,-6.48
2017-01-21T04:02:02.969Z,-6.46
2017-01-21T04:03:02.966Z,-6.48
2017-01-21T04:04:02.550Z,-6.45
2017-01-21T04:05:02.542Z,-6.44
2017-01-21T04:06:02.950Z,-6.45
2017-01-21T04:07:02.946Z,-6.48
2017-01-21T04:08:02.530Z,-6.49
2017-01-21T04:09:02.526Z,-6.44
2017-01-21T04:10:02.514Z,-6.44
2017-01-21T04:11:02.914Z,-6.46
2017-01-21T04:12:02.918Z,-6.45
2017-01-21T04:13:02.091Z,-6.44
2017-01-21T04:14:02.498Z,-6.44
2017-01-21T04:15:02.487Z,-6.51
2017-01-21T04:16:02.902Z,-6.52
2017-01-21T04:17:02.480Z,-6.58
2017-01-21T04:18:02.474Z,-6.54
2017-01-21T04:19:02.065Z,-6.48
2017-01-21T04:20:02.879Z,-6.46
2017-01-21T04:21:02.467Z,-6.46
2017-01-21T04:22:02.871Z,-6.49
2017-01-21T04:23:02.859Z,-6.45
2017-01-21T04:24:02.863Z,-6.51
2017-01-21T04:25:02.859Z,-6.45
2017-01-21T04:26:02.039Z,-6.45
2017-01-21T04:27:02.435Z,-6.49
2017-01-21T04:28:02.847Z,-6.46
2017-01-21T04:29:02.432Z,-6.44
2017-01-21T04:30:02.835Z,-6.36
2017-01-21T04:31:02.832Z,-6.42
2017-01-21T04:32:02.003Z,-6.45
2017-01-21T04:33:02.408Z,-6.41
2017-01-21T04:34:02.816Z,-6.45
2017-01-21T04:35:02.815Z,-6.49
2017-01-21T04:36:02.403Z,-6.49
2017-01-21T04:37:02.388Z,-6.46
2017-01-21T04:38:02.384Z,-6.51
2017-01-21T04:39:02.375Z,-6.58
2017-01-21T04:40:02.376Z,-6.56
2017-01-21T04:41:02.776Z,-6.51
2017-01-21T04:42:02.361Z,-6.42
2017-01-21T04:43:02.772Z,-6.46
2017-01-21T04:44:02.760Z,-6.46
2017-01-21T04:45:02.352Z,-6.46
2017-01-21T04:46:01.940Z,-6.44
2017-01-21T04:47:02.344Z,-6.42
2017-01-21T04:48:02.340Z,-6.46
2017-01-21T04:49:02.752Z,-6.49
2017-01-21T04:50:02.324Z,-6.46
2017-01-21T04:51:02.324Z,-6.46
2017-01-21T04:52:02.725Z,-6.45
2017-01-21T04:53:02.324Z,-6.45
2017-01-21T04:54:02.721Z,-6.48
2017-01-21T04:55:02.740Z,-6.44
2017-01-21T04:56:02.301Z,-6.51
2017-01-21T04:57:02.700Z,-6.51
2017-01-21T04:58:02.705Z,-6.45
2017-01-21T04:59:02.285Z,-6.42
2017-01-21T05:00:02.281Z,-6.46
2017-01-21T05:01:02.281Z,-6.45
2017-01-21T05:02:01.864Z,-6.46
2017-01-21T05:03:02.678Z,-6.48
2017-01-21T05:04:02.677Z,-6.6
2017-01-21T05:05:02.265Z,-6.58
2017-01-21T05:06:02.670Z,-6.49
2017-01-21T05:07:02.661Z,-6.51
2017-01-21T05:08:02.245Z,-6.58
2017-01-21T05:09:02.645Z,-6.56
2017-01-21T05:10:02.233Z,-6.58
2017-01-21T05:11:02.637Z,-6.51
2017-01-21T05:12:02.233Z,-6.52
2017-01-21T05:13:02.226Z,-6.54
2017-01-21T05:14:02.221Z,-6.51
2017-01-21T05:15:02.625Z,-6.54
2017-01-21T05:16:02.217Z,-6.56
2017-01-21T05:17:02.201Z,-6.54
2017-01-21T05:18:02.197Z,-6.6
2017-01-21T05:19:02.602Z,-6.52
2017-01-21T05:20:02.601Z,-6.51
2017-01-21T05:21:02.589Z,-6.52
2017-01-21T05:22:02.586Z,-6.52
2017-01-21T05:23:02.173Z,-6.48
2017-01-21T05:24:02.165Z,-6.49
2017-01-21T05:25:02.593Z,-6.46
2017-01-21T05:26:02.162Z,-6.48
2017-01-21T05:27:02.562Z,-6.45
2017-01-21T05:28:02.562Z,-6.36
2017-01-21T05:29:02.546Z,-6.36
2017-01-21T05:30:02.554Z,-6.33
2017-01-21T05:31:02.130Z,-6.36
2017-01-21T05:32:02.542Z,-6.34
2017-01-21T05:33:02.126Z,-6.38
2017-01-21T05:34:02.118Z,-6.33
2017-01-21T05:35:01.702Z,-6.36
2017-01-21T05:36:01.702Z,-6.39
2017-01-21T05:37:02.114Z,-6.39
2017-01-21T05:38:02.514Z,-6.34
2017-01-21T05:39:01.695Z,-6.34
2017-01-21T05:40:02.502Z,-6.31
2017-01-21T05:41:02.490Z,-6.36
2017-01-21T05:42:02.494Z,-6.36
2017-01-21T05:43:02.074Z,-6.36
2017-01-21T05:44:02.074Z,-6.41
2017-01-21T05:45:02.066Z,-6.34
2017-01-21T05:46:02.482Z,-6.46
2017-01-21T05:47:02.479Z,-6.39
2017-01-21T05:48:02.050Z,-6.46
2017-01-21T05:49:02.463Z,-6.42
2017-01-21T05:50:02.051Z,-6.48
2017-01-21T05:51:02.459Z,-6.46
2017-01-21T05:52:02.458Z,-6.48
2017-01-21T05:53:02.443Z,-6.44
2017-01-21T05:54:02.031Z,-6.42
2017-01-21T05:55:02.023Z,-6.42
2017-01-21T05:56:02.019Z,-6.38
2017-01-21T05:57:02.015Z,-6.39
2017-01-21T05:58:02.002Z,-6.36
2017-01-21T05:59:02.011Z,-6.42
2017-01-21T06:00:02.015Z,-6.36
2017-01-21T06:01:02.003Z,-6.39
2017-01-21T06:02:01.987Z,-6.42
2017-01-21T06:03:01.992Z,-6.31
2017-01-21T06:04:01.983Z,-6.42
2017-01-21T06:05:02.387Z,-6.27
2017-01-21T06:06:01.971Z,-6.24
2017-01-21T06:07:01.971Z,-6.23
2017-01-21T06:08:02.375Z,-6.24
2017-01-21T06:09:01.955Z,-6.27
2017-01-21T06:10:01.947Z,-6.27
2017-01-21T06:11:02.355Z,-6.31
2017-01-21T06:12:02.355Z,-6.36
2017-01-21T06:13:02.339Z,-6.42
2017-01-21T06:14:02.339Z,-6.36
2017-01-21T06:15:01.932Z,-6.34
2017-01-21T06:16:02.343Z,-6.36
2017-01-21T06:17:02.327Z,-6.44
2017-01-21T06:18:01.923Z,-6.34
2017-01-21T06:19:01.499Z,-6.39
2017-01-21T06:20:01.904Z,-6.28
2017-01-21T06:21:01.896Z,-6.28
2017-01-21T06:22:01.891Z,-6.33
2017-01-21T06:23:01.887Z,-6.3
2017-01-21T06:24:02.299Z,-6.31
2017-01-21T06:25:01.872Z,-6.34
2017-01-21T06:26:02.288Z,-6.27
2017-01-21T06:27:01.868Z,-6.3
2017-01-21T06:28:02.276Z,-6.28
2017-01-21T06:29:01.447Z,-6.33
2017-01-21T06:30:01.851Z,-6.41
2017-01-21T06:31:01.852Z,-6.34
2017-01-21T06:32:01.839Z,-6.27
2017-01-21T06:33:01.844Z,-6.3
2017-01-21T06:34:01.451Z,-6.3
2017-01-21T06:35:02.239Z,-6.34
2017-01-21T06:36:02.236Z,-6.26
2017-01-21T06:37:02.232Z,-6.15
2017-01-21T06:38:01.819Z,-6.24
2017-01-21T06:39:01.812Z,-6.13
2017-01-21T06:40:01.396Z,-6.2
2017-01-21T06:41:02.211Z,-6.21
2017-01-21T06:42:01.804Z,-6.15
2017-01-21T06:43:02.208Z,-6.24
2017-01-21T06:44:01.791Z,-6.15
2017-01-21T06:45:02.199Z,-6.24
2017-01-21T06:46:01.780Z,-6.23
2017-01-21T06:47:01.771Z,-6.2
2017-01-21T06:48:01.771Z,-6.27
2017-01-21T06:49:01.764Z,-6.27
2017-01-21T06:50:01.759Z,-6.24
2017-01-21T06:51:01.752Z,-6.21
2017-01-21T06:52:01.748Z,-6.28
2017-01-21T06:53:01.743Z,-6.24
2017-01-21T06:54:01.740Z,-6.18
2017-01-21T06:55:02.152Z,-6.26
2017-01-21T06:56:01.728Z,-6.26
2017-01-21T06:57:02.135Z,-6.2
2017-01-21T06:58:01.743Z,-6.23
2017-01-21T06:59:01.716Z,-6.24
2017-01-21T07:00:02.125Z,-6.18
2017-01-21T07:01:02.124Z,-6.26
2017-01-21T07:02:01.703Z,-6.28
2017-01-21T07:03:01.695Z,-6.2
2017-01-21T07:04:01.280Z,-6.26
2017-01-21T07:05:01.692Z,-6.2
2017-01-21T07:06:02.096Z,-6.21
2017-01-21T07:07:01.676Z,-6.3
2017-01-21T07:08:02.076Z,-6.27
2017-01-21T07:09:02.080Z,-6.26
2017-01-21T07:10:02.084Z,-6.23
2017-01-21T07:11:01.663Z,-6.24
2017-01-21T07:12:02.076Z,-6.15
2017-01-21T07:13:02.056Z,-6.26
2017-01-21T07:14:02.062Z,-6.23
2017-01-21T07:15:02.047Z,-6.23
2017-01-21T07:16:02.052Z,-6.21
2017-01-21T07:17:02.040Z,-6.2
2017-01-21T07:18:01.624Z,-6.15
2017-01-21T07:19:01.624Z,-6.1
2017-01-21T07:20:01.620Z,-6.13
2017-01-21T07:21:02.020Z,-6.18
2017-01-21T07:22:01.612Z,-6.18
2017-01-21T07:23:01.604Z,-6.2
2017-01-21T07:24:01.596Z,-6.2
2017-01-21T07:25:01.996Z,-6.18
2017-01-21T07:26:01.988Z,-6.23
2017-01-21T07:27:01.992Z,-6.24
2017-01-21T07:28:01.984Z,-6.2
2017-01-21T07:29:01.576Z,-6.23
2017-01-21T07:30:01.156Z,-6.26
2017-01-21T07:31:01.568Z,-6.28
2017-01-21T07:32:01.148Z,-6.28
2017-01-21T07:33:01.560Z,-6.21
2017-01-21T07:34:01.140Z,-6.28
2017-01-21T07:35:01.964Z,-6.13
2017-01-21T07:36:01.544Z,-6.18
2017-01-21T07:37:01.537Z,-6.2
2017-01-21T07:38:01.528Z,-6.18
2017-01-21T07:39:01.940Z,-6.13
2017-01-21T07:40:01.932Z,-6.13
2017-01-21T07:41:01.524Z,-6.15
2017-01-21T07:42:01.928Z,-6.09
2017-01-21T07:43:01.916Z,-6.12
2017-01-21T07:44:01.504Z,-6.12
2017-01-21T07:45:01.892Z,-6.02
2017-01-21T07:46:01.496Z,-6.06
2017-01-21T07:47:01.485Z,-6.05
2017-01-21T07:48:01.896Z,-6.1
2017-01-21T07:49:01.480Z,-6.1
2017-01-21T07:50:01.476Z,-6.1
2017-01-21T07:51:01.461Z,-6.05
2017-01-21T07:52:01.880Z,-6
2017-01-21T07:53:01.869Z,-6.02
2017-01-21T07:54:01.453Z,-6.02
2017-01-21T07:55:01.450Z,-6.03
2017-01-21T07:56:01.857Z,-5.92
2017-01-21T07:57:01.845Z,-5.91
2017-01-21T07:58:01.032Z,-5.85
2017-01-21T07:59:01.437Z,-5.92
2017-01-21T08:00:01.833Z,-5.88
2017-01-21T08:01:01.836Z,-5.85
2017-01-21T08:02:01.833Z,-5.77
2017-01-21T08:03:01.412Z,-5.94
2017-01-21T08:04:01.825Z,-5.89
2017-01-21T08:05:01.408Z,-5.87
2017-01-21T08:06:01.400Z,-5.91
2017-01-21T08:07:01.400Z,-5.89
2017-01-21T08:08:01.808Z,-5.82
2017-01-21T08:09:01.800Z,-5.73
2017-01-21T08:10:01.383Z,-5.76
2017-01-21T08:11:01.788Z,-5.92
2017-01-21T08:12:00.955Z,-5.89
2017-01-21T08:13:01.367Z,-5.85
2017-01-21T08:14:01.767Z,-5.88
2017-01-21T08:15:01.771Z,-5.84
2017-01-21T08:16:01.763Z,-5.85
2017-01-21T08:17:01.347Z,-5.92
2017-01-21T08:18:01.759Z,-5.76
2017-01-21T08:19:01.335Z,-5.7
2017-01-21T08:20:01.735Z,-5.77
2017-01-21T08:21:01.742Z,-5.74
2017-01-21T08:22:01.735Z,-5.66
2017-01-21T08:23:01.318Z,-5.7
2017-01-21T08:24:01.726Z,-5.67
2017-01-21T08:25:00.894Z,-5.67
2017-01-21T08:26:01.718Z,-5.67
2017-01-21T08:27:01.717Z,-5.63
2017-01-21T08:28:01.718Z,-5.66
2017-01-21T08:29:01.702Z,-5.68
2017-01-21T08:30:01.291Z,-5.71
2017-01-21T08:31:01.689Z,-5.68
2017-01-21T08:32:01.691Z,-5.7
2017-01-21T08:33:01.270Z,-5.66
2017-01-21T08:34:01.258Z,-5.59
2017-01-21T08:35:01.677Z,-5.58
2017-01-21T08:36:01.261Z,-5.59
2017-01-21T08:37:01.254Z,-5.6
2017-01-21T08:38:01.249Z,-5.56
2017-01-21T08:39:01.653Z,-5.52
2017-01-21T08:40:01.237Z,-5.46
2017-01-21T08:41:01.637Z,-5.41
2017-01-21T08:42:01.237Z,-5.35
2017-01-21T08:43:01.641Z,-5.45
2017-01-21T08:44:00.809Z,-5.41
2017-01-21T08:45:01.217Z,-5.49
2017-01-21T08:46:01.216Z,-5.45
2017-01-21T08:47:01.212Z,-5.35
2017-01-21T08:48:01.622Z,-5.41
2017-01-21T08:49:01.205Z,-5.28
2017-01-21T08:50:01.601Z,-5.19
2017-01-21T08:51:01.196Z,-5.23
2017-01-21T08:52:01.596Z,-5.13
2017-01-21T08:53:01.184Z,-5.13
2017-01-21T08:54:01.181Z,-5.12
2017-01-21T08:55:01.581Z,-4.97
2017-01-21T08:56:01.577Z,-5.01
2017-01-21T08:57:01.565Z,-4.97
2017-01-21T08:58:01.153Z,-4.97
2017-01-21T08:59:01.149Z,-4.95
2017-01-21T09:00:01.153Z,-4.87
2017-01-21T09:01:01.149Z,-4.88
2017-01-21T09:02:01.141Z,-4.92
2017-01-21T09:03:01.549Z,-4.9
2017-01-21T09:04:01.129Z,-4.88
2017-01-21T09:05:01.125Z,-4.84
2017-01-21T09:06:01.113Z,-4.88
2017-01-21T09:07:01.533Z,-4.94
2017-01-21T09:08:01.529Z,-4.84
2017-01-21T09:09:01.522Z,-4.97
2017-01-21T09:10:01.514Z,-4.76
2017-01-21T09:11:01.511Z,-4.74
2017-01-21T09:12:01.509Z,-4.76
2017-01-21T09:13:01.098Z,-4.7
2017-01-21T09:14:01.498Z,-4.7
2017-01-21T09:15:01.085Z,-4.69
2017-01-21T09:16:01.081Z,-4.69
2017-01-21T09:17:01.498Z,-4.53
2017-01-21T09:18:01.483Z,-4.58
2017-01-21T09:19:01.066Z,-4.58
2017-01-21T09:20:01.470Z,-4.55
2017-01-21T09:21:01.469Z,-4.53
2017-01-21T09:22:00.646Z,-4.44
2017-01-21T09:23:01.038Z,-4.4
2017-01-21T09:24:01.458Z,-4.4
2017-01-21T09:25:01.454Z,-4.41
2017-01-21T09:26:01.446Z,-4.38
2017-01-21T09:27:01.454Z,-4.38
2017-01-21T09:28:01.017Z,-4.37
2017-01-21T09:29:01.434Z,-4.31
2017-01-21T09:30:00.599Z,-4.37
2017-01-21T09:31:01.433Z,-4.37
2017-01-21T09:32:01.413Z,-4.33
2017-01-21T09:33:01.009Z,-4.34
2017-01-21T09:34:01.001Z,-4.37
2017-01-21T09:35:01.406Z,-4.27
2017-01-21T09:36:01.402Z,-4.26
2017-01-21T09:37:01.397Z,-4.19
2017-01-21T09:38:00.985Z,-4.27
2017-01-21T09:39:00.973Z,-4.16
2017-01-21T09:40:01.381Z,-4.02
2017-01-21T09:41:01.369Z,-3.99
2017-01-21T09:42:01.377Z,-3.8
2017-01-21T09:43:00.957Z,-3.74
2017-01-21T09:44:00.953Z,-3.74
2017-01-21T09:45:01.364Z,-3.61
2017-01-21T09:46:00.952Z,-3.58
2017-01-21T09:47:01.360Z,-3.62
2017-01-21T09:48:00.932Z,-3.56
2017-01-21T09:49:00.932Z,-3.51
2017-01-21T09:50:01.341Z,-3.55
2017-01-21T09:51:00.936Z,-3.55
2017-01-21T09:52:00.920Z,-3.46
2017-01-21T09:53:00.928Z,-3.38
2017-01-21T09:54:00.907Z,-3.41
2017-01-21T09:55:01.311Z,-3.5
2017-01-21T09:56:01.316Z,-3.44
2017-01-21T09:57:01.320Z,-3.44
2017-01-21T09:58:00.899Z,-3.43
2017-01-21T09:59:00.887Z,-3.44
2017-01-21T10:00:01.287Z,-3.36
2017-01-21T10:01:01.299Z,-3.27
2017-01-21T10:02:01.287Z,-3.23
2017-01-21T10:03:01.299Z,-3.22
2017-01-21T10:04:00.870Z,-3.25
2017-01-21T10:05:00.866Z,-3.33
2017-01-21T10:06:00.854Z,-3.23
2017-01-21T10:07:00.863Z,-3.17
2017-01-21T10:08:01.258Z,-3.17
2017-01-21T10:09:01.258Z,-3.11
2017-01-21T10:10:00.838Z,-3.04
2017-01-21T10:11:00.842Z,-3.05
2017-01-21T10:12:01.244Z,-2.94
2017-01-21T10:13:01.246Z,-2.96
2017-01-21T10:14:01.241Z,-2.86
2017-01-21T10:15:01.234Z,-2.81
2017-01-21T10:16:00.817Z,-2.76
2017-01-21T10:17:01.217Z,-2.7
2017-01-21T10:18:01.217Z,-2.68
2017-01-21T10:19:00.813Z,-2.76
2017-01-21T10:20:00.805Z,-2.72
2017-01-21T10:21:01.217Z,-2.66
2017-01-21T10:22:00.790Z,-2.62
2017-01-21T10:23:00.793Z,-2.57
2017-01-21T10:24:00.789Z,-2.69
2017-01-21T10:25:01.189Z,-2.58
2017-01-21T10:26:00.781Z,-2.54
2017-01-21T10:27:00.773Z,-2.61
2017-01-21T10:28:01.189Z,-2.5
2017-01-21T10:29:00.765Z,-2.57
2017-01-21T10:30:00.762Z,-2.72
2017-01-21T10:31:01.173Z,-2.69
2017-01-21T10:32:00.757Z,-2.61
2017-01-21T10:33:01.170Z,-2.62
2017-01-21T10:34:00.753Z,-2.51
2017-01-21T10:35:01.162Z,-2.45
2017-01-21T10:36:01.154Z,-2.36
2017-01-21T10:37:00.733Z,-2.2
2017-01-21T10:38:01.138Z,-2.15
2017-01-21T10:39:01.142Z,-1.96
2017-01-21T10:40:01.155Z,-1.9
2017-01-21T10:41:01.134Z,-1.71
2017-01-21T10:42:01.126Z,-1.63
2017-01-21T10:43:00.716Z,-1.46
2017-01-21T10:44:01.122Z,-1.3
2017-01-21T10:45:01.115Z,-1.18
2017-01-21T10:46:01.114Z,-1.01
2017-01-21T10:47:00.698Z,-0.85
2017-01-21T10:48:01.106Z,-0.82
2017-01-21T10:49:00.695Z,-0.75
2017-01-21T10:50:01.099Z,-0.56
2017-01-21T10:51:00.683Z,-0.54
2017-01-21T10:52:01.095Z,-0.54
2017-01-21T10:53:00.675Z,-0.38
2017-01-21T10:54:01.079Z,-0.38
2017-01-21T10:55:01.083Z,-0.28
2017-01-21T10:56:00.671Z,-0.17
2017-01-21T10:57:01.083Z,-0.24
2017-01-21T10:58:00.248Z,-0.15
2017-01-21T10:59:01.071Z,-0.13
2017-01-21T11:00:00.659Z,-0.09
2017-01-21T11:01:00.644Z,-0.03
2017-01-21T11:02:00.653Z,-0.09
2017-01-21T11:03:00.648Z,-0.05
2017-01-21T11:04:00.637Z,0.02
2017-01-21T11:05:00.629Z,-0.02
2017-01-21T11:06:01.049Z,-0.07
2017-01-21T11:07:01.045Z,-0.06
2017-01-21T11:08:01.041Z,-0.02
2017-01-21T11:09:01.034Z,0.06
2017-01-21T11:10:00.615Z,-0.03
2017-01-21T11:11:00.622Z,0.05
2017-01-21T11:12:00.610Z,0.01
2017-01-21T11:13:00.614Z,-0.09
2017-01-21T11:14:01.042Z,-0.05
2017-01-21T11:15:01.011Z,-0.15
2017-01-21T11:16:00.187Z,-0.15
2017-01-21T11:17:00.599Z,-0.07
2017-01-21T11:18:01.004Z,-0.05
2017-01-21T11:19:00.599Z,-0.03
2017-01-21T11:20:00.992Z,0.11
2017-01-21T11:21:00.996Z,0.12
2017-01-21T11:22:00.580Z,0.13
2017-01-21T11:23:00.988Z,0.12
2017-01-21T11:24:00.582Z,0.09
2017-01-21T11:25:00.985Z,0.19
2017-01-21T11:26:00.565Z,0.15
2017-01-21T11:27:00.973Z,0.16
2017-01-21T11:28:00.973Z,0.18
2017-01-21T11:29:00.969Z,0.2
2017-01-21T11:30:00.986Z,0.23
2017-01-21T11:31:00.542Z,0.16
2017-01-21T11:32:00.542Z,0.18
2017-01-21T11:33:00.544Z,0.19
2017-01-21T11:34:00.542Z,0.18
2017-01-21T11:35:00.943Z,0.26
2017-01-21T11:36:00.943Z,0.2
2017-01-21T11:37:00.939Z,0.2
2017-01-21T11:38:00.939Z,0.19
2017-01-21T11:39:00.935Z,0.2
2017-01-21T11:40:00.524Z,0.2
2017-01-21T11:41:00.936Z,0.19
2017-01-21T11:42:00.520Z,0.26
2017-01-21T11:43:00.520Z,0.26
2017-01-21T11:44:00.929Z,0.19
2017-01-21T11:45:00.925Z,0.29
2017-01-21T11:46:00.505Z,0.19
2017-01-21T11:47:00.921Z,0.18
2017-01-21T11:48:00.506Z,0.23
2017-01-21T11:49:00.498Z,0.24
2017-01-21T11:50:00.910Z,0.19
2017-01-21T11:51:00.490Z,0.26
2017-01-21T11:52:00.490Z,0.24
2017-01-21T11:53:00.490Z,0.34
2017-01-21T11:54:00.482Z,0.3
2017-01-21T11:55:00.058Z,0.34
2017-01-21T11:56:00.887Z,0.39
2017-01-21T11:57:00.882Z,0.27
2017-01-21T11:58:00.470Z,0.29
2017-01-21T11:59:00.462Z,0.33
2017-01-21T12:00:00.462Z,0.36
2017-01-21T12:01:00.466Z,0.24
2017-01-21T12:02:00.875Z,0.29
2017-01-21T12:03:00.867Z,0.27
2017-01-21T12:04:00.867Z,0.34
2017-01-21T12:05:00.035Z,0.31
2017-01-21T12:06:00.027Z,0.33
2017-01-21T12:07:00.435Z,0.34
2017-01-21T12:08:00.443Z,0.3
2017-01-21T12:09:00.844Z,0.26
2017-01-21T12:10:00.436Z,0.33
2017-01-21T12:11:00.840Z,0.37
2017-01-21T12:12:00.840Z,0.39
2017-01-21T12:13:00.423Z,0.47
2017-01-21T12:14:00.420Z,0.48
2017-01-21T12:15:00.420Z,0.52
2017-01-21T12:16:00.420Z,0.59
2017-01-21T12:17:00.818Z,0.59
2017-01-21T12:18:00.824Z,0.67
2017-01-21T12:19:00.409Z,0.66
2017-01-21T12:20:00.432Z,0.71
2017-01-21T12:21:00.413Z,0.67
2017-01-21T12:22:00.401Z,0.61
2017-01-21T12:23:00.809Z,0.66
2017-01-21T12:24:00.814Z,0.64
2017-01-21T12:25:00.390Z,0.59
2017-01-21T12:26:00.802Z,0.68
2017-01-21T12:27:00.794Z,0.64
2017-01-21T12:28:00.794Z,0.59
2017-01-21T12:29:00.382Z,0.61
2017-01-21T12:30:00.370Z,0.64
2017-01-21T12:31:00.366Z,0.66
2017-01-21T12:32:00.783Z,0.7
2017-01-21T12:33:00.779Z,0.7
2017-01-21T12:34:00.362Z,0.76
2017-01-21T12:35:00.775Z,0.74
2017-01-21T12:36:00.767Z,0.95
2017-01-21T12:37:00.355Z,0.88
2017-01-21T12:38:00.771Z,0.99
2017-01-21T12:39:00.763Z,1.03
2017-01-21T12:40:00.755Z,1.04
2017-01-21T12:41:00.360Z,1.06
2017-01-21T12:42:00.752Z,1.04
2017-01-21T12:43:00.744Z,1.07
2017-01-21T12:43:59.924Z,1.04
2017-01-21T12:45:00.748Z,0.89
2017-01-21T12:46:00.728Z,0.91
2017-01-21T12:46:59.944Z,0.94
2017-01-21T12:48:00.328Z,0.94
2017-01-21T12:49:00.317Z,0.86
2017-01-21T12:50:00.732Z,1.03
2017-01-21T12:51:00.729Z,1.07
2017-01-21T12:51:59.917Z,0.99
2017-01-21T12:52:59.905Z,1.06
2017-01-21T12:54:00.306Z,1.03
2017-01-21T12:55:00.305Z,1
2017-01-21T12:56:00.330Z,1.02
2017-01-21T12:57:00.710Z,0.91
2017-01-21T12:58:00.294Z,1.04